sensor_id;sensor_type;location;lat;lon;timestamp;pressure;altitude;pressure_sealevel;temperature;humidity
51986;BME280;38002;53.296;6.600;2023-11-19T00:02:15;100712.63;;;10.81;100.00
51986;BME280;38002;53.296;6.600;2023-11-19T00:07:16;100710.06;;;10.87;100.00
51986;BME280;38002;53.296;6.600;2023-11-19T00:12:17;100687.66;;;10.93;100.00
51986;BME280;38002;53.296;6.600;2023-11-19T00:17:18;100675.59;;;11.04;100.00
51986;BME280;38002;53.296;6.600;2023-11-19T00:22:19;100679.50;;;11.10;100.00
51986;BME280;38002;53.296;6.600;2023-11-19T00:27:21;100676.59;;;11.19;100.00
51986;BME280;38002;53.296;6.600;2023-11-19T00:32:22;100673.22;;;11.25;100.00
51986;BME280;38002;53.296;6.600;2023-11-19T00:37:23;100674.22;;;11.32;100.00
51986;BME280;38002;53.296;6.600;2023-11-19T00:42:24;100668.09;;;11.38;100.00
51986;BME280;38002;53.296;6.600;2023-11-19T00:47:24;100662.97;;;11.44;100.00
51986;BME280;38002;53.296;6.600;2023-11-19T00:52:25;100649.38;;;11.52;100.00
51986;BME280;38002;53.296;6.600;2023-11-19T00:57:26;100638.44;;;11.60;100.00
51986;BME280;38002;53.296;6.600;2023-11-19T01:02:27;100637.72;;;11.66;100.00
51986;BME280;38002;53.296;6.600;2023-11-19T01:07:27;100637.41;;;11.69;100.00
51986;BME280;38002;53.296;6.600;2023-11-19T01:12:27;100628.75;;;11.73;100.00
51986;BME280;38002;53.296;6.600;2023-11-19T01:17:28;100620.38;;;11.75;100.00
51986;BME280;38002;53.296;6.600;2023-11-19T01:22:28;100630.91;;;11.78;100.00
51986;BME280;38002;53.296;6.600;2023-11-19T01:27:29;100647.94;;;11.80;100.00
51986;BME280;38002;53.296;6.600;2023-11-19T01:32:29;100642.00;;;11.76;100.00
51986;BME280;38002;53.296;6.600;2023-11-19T01:37:30;100632.13;;;11.75;100.00
51986;BME280;38002;53.296;6.600;2023-11-19T01:42:38;100633.47;;;11.79;100.00
51986;BME280;38002;53.296;6.600;2023-11-19T01:47:39;100626.16;;;11.80;100.00
51986;BME280;38002;53.296;6.600;2023-11-19T01:52:41;100622.75;;;11.78;100.00
51986;BME280;38002;53.296;6.600;2023-11-19T01:57:41;100613.75;;;11.77;100.00
51986;BME280;38002;53.296;6.600;2023-11-19T02:02:43;100607.25;;;11.78;100.00
51986;BME280;38002;53.296;6.600;2023-11-19T02:07:43;100602.84;;;11.77;100.00
51986;BME280;38002;53.296;6.600;2023-11-19T02:12:44;100581.88;;;11.78;100.00
51986;BME280;38002;53.296;6.600;2023-11-19T02:17:46;100598.06;;;11.79;100.00
51986;BME280;38002;53.296;6.600;2023-11-19T02:22:47;100603.50;;;11.79;100.00
51986;BME280;38002;53.296;6.600;2023-11-19T02:27:53;100614.41;;;11.79;100.00
51986;BME280;38002;53.296;6.600;2023-11-19T02:32:58;100612.53;;;11.80;100.00
51986;BME280;38002;53.296;6.600;2023-11-19T02:38:01;100619.00;;;11.79;100.00
51986;BME280;38002;53.296;6.600;2023-11-19T02:43:03;100606.94;;;11.73;100.00
51986;BME280;38002;53.296;6.600;2023-11-19T02:48:05;100601.16;;;11.68;100.00
51986;BME280;38002;53.296;6.600;2023-11-19T02:53:06;100605.41;;;11.63;100.00
51986;BME280;38002;53.296;6.600;2023-11-19T02:58:07;100592.31;;;11.58;100.00
51986;BME280;38002;53.296;6.600;2023-11-19T03:03:20;100588.91;;;11.56;100.00
51986;BME280;38002;53.296;6.600;2023-11-19T03:08:22;100576.84;;;11.51;100.00
51986;BME280;38002;53.296;6.600;2023-11-19T03:13:23;100572.78;;;11.47;100.00
51986;BME280;38002;53.296;6.600;2023-11-19T03:18:23;100571.59;;;11.41;100.00
51986;BME280;38002;53.296;6.600;2023-11-19T03:23:24;100580.13;;;11.38;100.00
51986;BME280;38002;53.296;6.600;2023-11-19T03:28:28;100565.16;;;11.34;100.00
51986;BME280;38002;53.296;6.600;2023-11-19T03:33:28;100558.03;;;11.33;100.00
51986;BME280;38002;53.296;6.600;2023-11-19T03:38:28;100561.75;;;11.32;100.00
51986;BME280;38002;53.296;6.600;2023-11-19T03:43:31;100559.72;;;11.34;100.00
51986;BME280;38002;53.296;6.600;2023-11-19T03:48:31;100552.75;;;11.31;100.00
51986;BME280;38002;53.296;6.600;2023-11-19T03:53:32;100560.75;;;11.33;100.00
51986;BME280;38002;53.296;6.600;2023-11-19T03:58:32;100558.69;;;11.35;100.00
51986;BME280;38002;53.296;6.600;2023-11-19T04:03:33;100544.78;;;11.30;100.00
51986;BME280;38002;53.296;6.600;2023-11-19T04:08:33;100550.34;;;11.36;100.00
51986;BME280;38002;53.296;6.600;2023-11-19T04:13:34;100545.75;;;11.37;100.00
51986;BME280;38002;53.296;6.600;2023-11-19T04:18:35;100551.19;;;11.37;100.00
51986;BME280;38002;53.296;6.600;2023-11-19T04:23:36;100559.00;;;11.40;100.00
51986;BME280;38002;53.296;6.600;2023-11-19T04:28:36;100559.69;;;11.42;100.00
51986;BME280;38002;53.296;6.600;2023-11-19T04:33:36;100552.56;;;11.41;100.00
51986;BME280;38002;53.296;6.600;2023-11-19T04:38:37;100562.44;;;11.42;100.00
51986;BME280;38002;53.296;6.600;2023-11-19T04:43:38;100559.00;;;11.40;100.00
51986;BME280;38002;53.296;6.600;2023-11-19T04:48:39;100568.88;;;11.41;100.00
51986;BME280;38002;53.296;6.600;2023-11-19T04:53:39;100551.19;;;11.37;100.00
51986;BME280;38002;53.296;6.600;2023-11-19T04:58:40;100560.38;;;11.36;100.00
51986;BME280;38002;53.296;6.600;2023-11-19T05:03:40;100559.53;;;11.35;100.00
51986;BME280;38002;53.296;6.600;2023-11-19T05:08:40;100555.13;;;11.34;100.00
51986;BME280;38002;53.296;6.600;2023-11-19T05:13:41;100560.75;;;11.33;100.00
51986;BME280;38002;53.296;6.600;2023-11-19T05:18:42;100558.19;;;11.31;100.00
51986;BME280;38002;53.296;6.600;2023-11-19T05:23:42;100568.06;;;11.32;100.00
51986;BME280;38002;53.296;6.600;2023-11-19T05:28:43;100561.25;;;11.28;100.00
51986;BME280;38002;53.296;6.600;2023-11-19T05:33:44;100562.13;;;11.29;100.00
51986;BME280;38002;53.296;6.600;2023-11-19T05:38:44;100564.84;;;11.29;100.00
51986;BME280;38002;53.296;6.600;2023-11-19T05:43:45;100572.16;;;11.28;100.00
51986;BME280;38002;53.296;6.600;2023-11-19T05:48:45;100560.06;;;11.23;100.00
51986;BME280;38002;53.296;6.600;2023-11-19T05:53:47;100575.22;;;11.25;100.00
51986;BME280;38002;53.296;6.600;2023-11-19T05:58:48;100568.25;;;11.23;100.00
51986;BME280;38002;53.296;6.600;2023-11-19T06:03:49;100575.03;;;11.27;100.00
51986;BME280;38002;53.296;6.600;2023-11-19T06:08:50;100580.69;;;11.25;100.00
51986;BME280;38002;53.296;6.600;2023-11-19T06:13:50;100586.63;;;11.21;100.00
51986;BME280;38002;53.296;6.600;2023-11-19T06:18:51;100585.44;;;11.15;100.00
51986;BME280;38002;53.296;6.600;2023-11-19T06:23:51;100584.94;;;11.12;100.00
51986;BME280;38002;53.296;6.600;2023-11-19T06:28:53;100602.78;;;11.14;100.00
51986;BME280;38002;53.296;6.600;2023-11-19T06:33:54;100597.69;;;11.11;100.00
51986;BME280;38002;53.296;6.600;2023-11-19T06:38:55;100596.19;;;11.09;100.00
51986;BME280;38002;53.296;6.600;2023-11-19T06:43:55;100606.38;;;11.07;100.00
51986;BME280;38002;53.296;6.600;2023-11-19T06:48:56;100605.03;;;11.03;100.00
51986;BME280;38002;53.296;6.600;2023-11-19T06:53:56;100606.38;;;10.99;100.00
51986;BME280;38002;53.296;6.600;2023-11-19T06:58:57;100609.78;;;10.92;100.00
51986;BME280;38002;53.296;6.600;2023-11-19T07:03:57;100602.47;;;10.93;100.00
51986;BME280;38002;53.296;6.600;2023-11-19T07:08:58;100606.41;;;10.90;100.00
51986;BME280;38002;53.296;6.600;2023-11-19T07:13:58;100594.66;;;10.90;100.00
51986;BME280;38002;53.296;6.600;2023-11-19T07:19:01;100599.75;;;10.85;100.00
51986;BME280;38002;53.296;6.600;2023-11-19T07:24:02;100612.84;;;10.81;100.00
51986;BME280;38002;53.296;6.600;2023-11-19T07:29:03;100607.06;;;10.76;100.00
51986;BME280;38002;53.296;6.600;2023-11-19T07:34:07;100617.59;;;10.79;100.00
51986;BME280;38002;53.296;6.600;2023-11-19T07:39:09;100626.44;;;10.81;100.00
51986;BME280;38002;53.296;6.600;2023-11-19T07:44:10;100629.31;;;10.80;100.00
51986;BME280;38002;53.296;6.600;2023-11-19T07:49:11;100639.19;;;10.81;100.00
51986;BME280;38002;53.296;6.600;2023-11-19T07:54:12;100641.91;;;10.81;100.00
51986;BME280;38002;53.296;6.600;2023-11-19T07:59:14;100647.88;;;10.84;100.00
51986;BME280;38002;53.296;6.600;2023-11-19T08:04:14;100637.69;;;10.86;100.00
51986;BME280;38002;53.296;6.600;2023-11-19T08:09:15;100644.47;;;10.90;100.00
51986;BME280;38002;53.296;6.600;2023-11-19T08:14:16;100654.84;;;10.95;100.00
51986;BME280;38002;53.296;6.600;2023-11-19T08:19:16;100655.34;;;10.99;100.00
51986;BME280;38002;53.296;6.600;2023-11-19T08:24:17;100660.81;;;10.99;100.00
51986;BME280;38002;53.296;6.600;2023-11-19T08:29:17;100666.91;;;11.01;100.00
51986;BME280;38002;53.296;6.600;2023-11-19T08:34:18;100669.63;;;11.01;100.00
51986;BME280;38002;53.296;6.600;2023-11-19T08:39:19;100662.50;;;11.00;100.00
51986;BME280;38002;53.296;6.600;2023-11-19T08:44:21;100654.34;;;11.00;100.00
51986;BME280;38002;53.296;6.600;2023-11-19T08:49:21;100671.34;;;11.02;100.00
51986;BME280;38002;53.296;6.600;2023-11-19T08:54:23;100667.59;;;11.03;100.00
51986;BME280;38002;53.296;6.600;2023-11-19T08:59:23;100666.94;;;11.09;100.00
51986;BME280;38002;53.296;6.600;2023-11-19T09:04:24;100682.56;;;11.15;100.00
51986;BME280;38002;53.296;6.600;2023-11-19T09:09:24;100679.84;;;11.23;100.00
51986;BME280;38002;53.296;6.600;2023-11-19T09:14:25;100681.19;;;11.35;100.00
51986;BME280;38002;53.296;6.600;2023-11-19T09:19:26;100681.00;;;11.45;100.00
51986;BME280;38002;53.296;6.600;2023-11-19T09:24:26;100686.28;;;11.46;100.00
51986;BME280;38002;53.296;6.600;2023-11-19T09:29:27;100684.22;;;11.48;100.00
51986;BME280;38002;53.296;6.600;2023-11-19T09:34:27;100682.38;;;11.49;100.00
51986;BME280;38002;53.296;6.600;2023-11-19T09:39:28;100674.19;;;11.49;100.00
51986;BME280;38002;53.296;6.600;2023-11-19T09:44:29;100671.97;;;11.52;100.00
51986;BME280;38002;53.296;6.600;2023-11-19T09:49:29;100676.56;;;11.60;100.00
51986;BME280;38002;53.296;6.600;2023-11-19T09:54:30;100677.22;;;11.70;100.00
51986;BME280;38002;53.296;6.600;2023-11-19T09:59:32;100682.00;;;11.76;100.00
51986;BME280;38002;53.296;6.600;2023-11-19T10:04:33;100679.13;;;11.77;100.00
51986;BME280;38002;53.296;6.600;2023-11-19T10:09:35;100669.88;;;11.87;100.00
51986;BME280;38002;53.296;6.600;2023-11-19T10:14:37;100664.78;;;11.83;100.00
51986;BME280;38002;53.296;6.600;2023-11-19T10:19:42;100665.63;;;11.84;100.00
51986;BME280;38002;53.296;6.600;2023-11-19T10:24:42;100666.16;;;11.79;100.00
51986;BME280;38002;53.296;6.600;2023-11-19T10:29:47;100669.06;;;11.78;100.00
51986;BME280;38002;53.296;6.600;2023-11-19T10:34:48;100664.66;;;11.77;100.00
51986;BME280;38002;53.296;6.600;2023-11-19T10:39:52;100677.59;;;11.75;100.00
51986;BME280;38002;53.296;6.600;2023-11-19T10:44:54;100681.34;;;11.82;100.00
51986;BME280;38002;53.296;6.600;2023-11-19T10:49:55;100673.94;;;11.99;100.00
51986;BME280;38002;53.296;6.600;2023-11-19T10:54:59;100671.31;;;12.13;100.00
51986;BME280;38002;53.296;6.600;2023-11-19T11:00:02;100675.53;;;12.24;100.00
51986;BME280;38002;53.296;6.600;2023-11-19T11:05:05;100667.44;;;12.39;100.00
51986;BME280;38002;53.296;6.600;2023-11-19T11:10:07;100665.31;;;12.57;100.00
51986;BME280;38002;53.296;6.600;2023-11-19T11:15:11;100666.41;;;12.70;100.00
51986;BME280;38002;53.296;6.600;2023-11-19T11:20:15;100664.09;;;12.82;100.00
51986;BME280;38002;53.296;6.600;2023-11-19T11:25:27;100667.38;;;12.78;100.00
51986;BME280;38002;53.296;6.600;2023-11-19T11:30:39;100662.84;;;12.70;100.00
51986;BME280;38002;53.296;6.600;2023-11-19T11:35:53;100661.88;;;12.63;100.00
51986;BME280;38002;53.296;6.600;2023-11-19T11:51:58;100650.91;;;12.40;100.00
51986;BME280;38002;53.296;6.600;2023-11-19T11:57:12;100657.13;;;12.26;100.00
51986;BME280;38002;53.296;6.600;2023-11-19T12:02:16;100651.91;;;12.16;100.00
51986;BME280;38002;53.296;6.600;2023-11-19T12:07:19;100645.81;;;12.06;100.00
51986;BME280;38002;53.296;6.600;2023-11-19T12:12:21;100658.75;;;12.04;100.00
51986;BME280;38002;53.296;6.600;2023-11-19T12:17:49;100638.56;;;12.21;100.00
51986;BME280;38002;53.296;6.600;2023-11-19T12:22:50;100639.19;;;12.32;100.00
51986;BME280;38002;53.296;6.600;2023-11-19T12:27:52;100654.38;;;12.26;100.00
51986;BME280;38002;53.296;6.600;2023-11-19T12:32:53;100640.53;;;12.36;100.00
51986;BME280;38002;53.296;6.600;2023-11-19T12:37:53;100631.84;;;12.63;100.00
51986;BME280;38002;53.296;6.600;2023-11-19T12:42:54;100624.88;;;12.83;100.00
51986;BME280;38002;53.296;6.600;2023-11-19T12:48:05;100628.28;;;12.85;100.00
51986;BME280;38002;53.296;6.600;2023-11-19T12:53:06;100639.81;;;12.72;100.00
51986;BME280;38002;53.296;6.600;2023-11-19T12:58:06;100634.59;;;12.63;100.00
51986;BME280;38002;53.296;6.600;2023-11-19T13:03:07;100635.66;;;12.54;100.00
51986;BME280;38002;53.296;6.600;2023-11-19T13:08:09;100635.19;;;12.50;100.00
51986;BME280;38002;53.296;6.600;2023-11-19T13:13:09;100635.34;;;12.49;100.00
51986;BME280;38002;53.296;6.600;2023-11-19T13:18:10;100638.44;;;12.46;100.00
51986;BME280;38002;53.296;6.600;2023-11-19T13:23:11;100648.19;;;12.40;100.00
51986;BME280;38002;53.296;6.600;2023-11-19T13:28:11;100642.78;;;12.32;100.00
51986;BME280;38002;53.296;6.600;2023-11-19T13:33:11;100638.88;;;12.26;100.00
51986;BME280;38002;53.296;6.600;2023-11-19T13:38:13;100643.00;;;12.22;100.00
51986;BME280;38002;53.296;6.600;2023-11-19T13:43:13;100642.69;;;12.17;100.00
51986;BME280;38002;53.296;6.600;2023-11-19T13:48:14;100641.69;;;12.10;100.00
51986;BME280;38002;53.296;6.600;2023-11-19T13:53:14;100639.50;;;12.06;100.00
51986;BME280;38002;53.296;6.600;2023-11-19T13:58:15;100638.81;;;12.04;100.00
51986;BME280;38002;53.296;6.600;2023-11-19T14:03:16;100628.47;;;11.99;100.00
51986;BME280;38002;53.296;6.600;2023-11-19T14:08:16;100634.63;;;11.93;100.00
51986;BME280;38002;53.296;6.600;2023-11-19T14:13:17;100650.81;;;11.87;100.00
51986;BME280;38002;53.296;6.600;2023-11-19T14:18:18;100651.88;;;11.77;100.00
51986;BME280;38002;53.296;6.600;2023-11-19T14:23:19;100642.53;;;11.72;100.00
51986;BME280;38002;53.296;6.600;2023-11-19T14:28:20;100647.13;;;11.63;100.00
51986;BME280;38002;53.296;6.600;2023-11-19T14:33:20;100645.28;;;11.56;100.00
51986;BME280;38002;53.296;6.600;2023-11-19T14:38:21;100646.81;;;11.50;100.00
51986;BME280;38002;53.296;6.600;2023-11-19T14:43:21;100645.13;;;11.41;100.00
51986;BME280;38002;53.296;6.600;2023-11-19T14:48:22;100640.34;;;11.35;100.00
51986;BME280;38002;53.296;6.600;2023-11-19T14:53:22;100641.56;;;11.32;100.00
51986;BME280;38002;53.296;6.600;2023-11-19T14:58:22;100651.94;;;11.29;100.00
51986;BME280;38002;53.296;6.600;2023-11-19T15:03:23;100639.69;;;11.25;100.00
51986;BME280;38002;53.296;6.600;2023-11-19T15:08:23;100647.19;;;11.23;100.00
51986;BME280;38002;53.296;6.600;2023-11-19T15:13:24;100639.19;;;11.21;100.00
51986;BME280;38002;53.296;6.600;2023-11-19T15:18:24;100648.38;;;11.20;100.00
51986;BME280;38002;53.296;6.600;2023-11-19T15:23:25;100647.03;;;11.16;100.00
51986;BME280;38002;53.296;6.600;2023-11-19T15:28:25;100647.53;;;11.12;100.00
51986;BME280;38002;53.296;6.600;2023-11-19T15:33:26;100643.47;;;11.08;100.00
51986;BME280;38002;53.296;6.600;2023-11-19T15:38:26;100638.34;;;11.05;100.00
51986;BME280;38002;53.296;6.600;2023-11-19T15:43:27;100634.94;;;11.03;100.00
51986;BME280;38002;53.296;6.600;2023-11-19T15:48:28;100637.66;;;11.03;100.00
51986;BME280;38002;53.296;6.600;2023-11-19T15:53:31;100645.69;;;11.04;100.00
51986;BME280;38002;53.296;6.600;2023-11-19T15:58:32;100644.81;;;11.04;100.00
51986;BME280;38002;53.296;6.600;2023-11-19T16:03:33;100648.56;;;11.03;100.00
51986;BME280;38002;53.296;6.600;2023-11-19T16:08:33;100658.44;;;11.04;100.00
51986;BME280;38002;53.296;6.600;2023-11-19T16:13:34;100649.91;;;10.99;100.00
51986;BME280;38002;53.296;6.600;2023-11-19T16:18:34;100652.47;;;11.00;100.00
51986;BME280;38002;53.296;6.600;2023-11-19T16:23:35;100656.38;;;10.98;100.00
51986;BME280;38002;53.296;6.600;2023-11-19T16:28:35;100657.72;;;10.93;100.00
51986;BME280;38002;53.296;6.600;2023-11-19T16:33:36;100654.31;;;10.91;100.00
51986;BME280;38002;53.296;6.600;2023-11-19T16:38:36;100655.66;;;10.87;100.00
51986;BME280;38002;53.296;6.600;2023-11-19T16:43:37;100667.91;;;10.83;100.00
51986;BME280;38002;53.296;6.600;2023-11-19T16:48:38;100657.53;;;10.79;100.00
51986;BME280;38002;53.296;6.600;2023-11-19T16:53:38;100663.16;;;10.77;100.00
51986;BME280;38002;53.296;6.600;2023-11-19T16:58:39;100651.78;;;10.74;100.00
51986;BME280;38002;53.296;6.600;2023-11-19T17:03:42;100666.38;;;10.73;100.00
51986;BME280;38002;53.296;6.600;2023-11-19T17:08:43;100663.66;;;10.73;100.00
51986;BME280;38002;53.296;6.600;2023-11-19T17:13:43;100661.97;;;10.72;100.00
51986;BME280;38002;53.296;6.600;2023-11-19T17:18:44;100665.88;;;10.69;100.00
51986;BME280;38002;53.296;6.600;2023-11-19T17:23:44;100666.53;;;10.71;100.00
51986;BME280;38002;53.296;6.600;2023-11-19T17:28:45;100665.53;;;10.72;100.00
51986;BME280;38002;53.296;6.600;2023-11-19T17:33:46;100652.94;;;10.71;100.00
51986;BME280;38002;53.296;6.600;2023-11-19T17:38:46;100657.38;;;10.72;100.00
51986;BME280;38002;53.296;6.600;2023-11-19T17:43:47;100658.22;;;10.73;100.00
51986;BME280;38002;53.296;6.600;2023-11-19T17:48:48;100662.81;;;10.72;100.00
51986;BME280;38002;53.296;6.600;2023-11-19T17:53:50;100654.81;;;10.71;100.00
51986;BME280;38002;53.296;6.600;2023-11-19T17:58:50;100656.00;;;10.68;100.00
51986;BME280;38002;53.296;6.600;2023-11-19T18:03:51;100641.06;;;10.64;100.00
51986;BME280;38002;53.296;6.600;2023-11-19T18:08:52;100644.78;;;10.63;100.00
51986;BME280;38002;53.296;6.600;2023-11-19T18:13:52;100639.50;;;10.62;100.00
51986;BME280;38002;53.296;6.600;2023-11-19T18:18:54;100634.25;;;10.60;100.00
51986;BME280;38002;53.296;6.600;2023-11-19T18:23:55;100634.56;;;10.57;100.00
51986;BME280;38002;53.296;6.600;2023-11-19T18:28:55;100627.25;;;10.58;100.00
51986;BME280;38002;53.296;6.600;2023-11-19T18:33:56;100630.84;;;10.58;100.00
51986;BME280;38002;53.296;6.600;2023-11-19T18:38:56;100627.09;;;10.59;100.00
51986;BME280;38002;53.296;6.600;2023-11-19T18:43:57;100617.44;;;10.57;100.00
51986;BME280;38002;53.296;6.600;2023-11-19T18:48:58;100621.66;;;10.59;100.00
51986;BME280;38002;53.296;6.600;2023-11-19T18:53:59;100621.81;;;10.58;100.00
51986;BME280;38002;53.296;6.600;2023-11-19T18:58:59;100615.22;;;10.60;100.00
51986;BME280;38002;53.296;6.600;2023-11-19T19:04:00;100610.78;;;10.59;100.00
51986;BME280;38002;53.296;6.600;2023-11-19T19:09:01;100596.34;;;10.59;100.00
51986;BME280;38002;53.296;6.600;2023-11-19T19:14:01;100590.06;;;10.58;100.00
51986;BME280;38002;53.296;6.600;2023-11-19T19:19:02;100594.47;;;10.59;100.00
51986;BME280;38002;53.296;6.600;2023-11-19T19:24:04;100581.91;;;10.58;100.00
51986;BME280;38002;53.296;6.600;2023-11-19T19:29:08;100581.38;;;10.55;100.00
51986;BME280;38002;53.296;6.600;2023-11-19T19:34:09;100585.81;;;10.56;100.00
51986;BME280;38002;53.296;6.600;2023-11-19T19:39:09;100586.66;;;10.56;100.00
51986;BME280;38002;53.296;6.600;2023-11-19T19:44:14;100574.09;;;10.55;100.00
51986;BME280;38002;53.296;6.600;2023-11-19T19:49:15;100566.94;;;10.54;100.00
51986;BME280;38002;53.296;6.600;2023-11-19T19:54:16;100559.78;;;10.53;100.00
51986;BME280;38002;53.296;6.600;2023-11-19T19:59:17;100552.50;;;10.54;100.00
51986;BME280;38002;53.296;6.600;2023-11-19T20:04:19;100556.41;;;10.51;100.00
51986;BME280;38002;53.296;6.600;2023-11-19T20:09:19;100560.00;;;10.52;100.00
51986;BME280;38002;53.296;6.600;2023-11-19T20:14:20;100560.00;;;10.52;100.00
51986;BME280;38002;53.296;6.600;2023-11-19T20:19:23;100567.13;;;10.53;100.00
51986;BME280;38002;53.296;6.600;2023-11-19T20:24:23;100558.78;;;10.54;100.00
51986;BME280;38002;53.296;6.600;2023-11-19T20:29:24;100547.75;;;10.56;100.00
51986;BME280;38002;53.296;6.600;2023-11-19T20:34:24;100538.38;;;10.58;100.00
51986;BME280;38002;53.296;6.600;2023-11-19T20:39:26;100540.09;;;10.59;100.00
51986;BME280;38002;53.296;6.600;2023-11-19T20:44:28;100533.66;;;10.60;100.00
51986;BME280;38002;53.296;6.600;2023-11-19T20:49:29;100542.31;;;10.64;100.00
51986;BME280;38002;53.296;6.600;2023-11-19T20:54:30;100524.13;;;10.64;100.00
51986;BME280;38002;53.296;6.600;2023-11-19T20:59:30;100529.38;;;10.66;100.00
51986;BME280;38002;53.296;6.600;2023-11-19T21:04:31;100526.50;;;10.67;100.00
51986;BME280;38002;53.296;6.600;2023-11-19T21:09:31;100532.63;;;10.69;100.00
51986;BME280;38002;53.296;6.600;2023-11-19T21:14:32;100538.72;;;10.71;100.00
51986;BME280;38002;53.296;6.600;2023-11-19T21:19:35;100538.38;;;10.74;100.00
51986;BME280;38002;53.296;6.600;2023-11-19T21:24:36;100541.78;;;10.76;100.00
51986;BME280;38002;53.296;6.600;2023-11-19T21:29:37;100547.94;;;10.78;100.00
51986;BME280;38002;53.296;6.600;2023-11-19T21:34:37;100523.97;;;10.74;100.00
51986;BME280;38002;53.296;6.600;2023-11-19T21:39:39;100534.63;;;10.83;100.00
51986;BME280;38002;53.296;6.600;2023-11-19T21:44:40;100539.91;;;10.85;100.00
51986;BME280;38002;53.296;6.600;2023-11-19T21:49:41;100540.75;;;10.85;100.00
51986;BME280;38002;53.296;6.600;2023-11-19T21:54:41;100537.19;;;10.85;100.00
51986;BME280;38002;53.296;6.600;2023-11-19T21:59:42;100528.03;;;10.86;100.00
51986;BME280;38002;53.296;6.600;2023-11-19T22:04:42;100535.31;;;10.85;100.00
51986;BME280;38002;53.296;6.600;2023-11-19T22:09:42;100548.22;;;10.83;100.00
51986;BME280;38002;53.296;6.600;2023-11-19T22:14:43;100541.13;;;10.82;100.00
51986;BME280;38002;53.296;6.600;2023-11-19T22:19:45;100554.19;;;10.79;100.00
51986;BME280;38002;53.296;6.600;2023-11-19T22:24:46;100544.66;;;10.75;100.00
51986;BME280;38002;53.296;6.600;2023-11-19T22:29:47;100551.31;;;10.72;100.00
51986;BME280;38002;53.296;6.600;2023-11-19T22:34:47;100562.53;;;10.69;100.00
51986;BME280;38002;53.296;6.600;2023-11-19T22:39:48;100561.00;;;10.67;100.00
51986;BME280;38002;53.296;6.600;2023-11-19T22:44:48;100552.34;;;10.63;100.00
51986;BME280;38002;53.296;6.600;2023-11-19T22:49:49;100561.19;;;10.65;100.00
51986;BME280;38002;53.296;6.600;2023-11-19T22:54:49;100574.09;;;10.63;100.00
51986;BME280;38002;53.296;6.600;2023-11-19T22:59:50;100565.94;;;10.63;100.00
51986;BME280;38002;53.296;6.600;2023-11-19T23:04:50;100564.91;;;10.64;100.00
51986;BME280;38002;53.296;6.600;2023-11-19T23:09:51;100566.63;;;10.65;100.00
51986;BME280;38002;53.296;6.600;2023-11-19T23:14:51;100571.22;;;10.65;100.00
51986;BME280;38002;53.296;6.600;2023-11-19T23:19:52;100571.38;;;10.63;100.00
51986;BME280;38002;53.296;6.600;2023-11-19T23:24:52;100564.06;;;10.64;100.00
51986;BME280;38002;53.296;6.600;2023-11-19T23:29:53;100574.09;;;10.63;100.00
51986;BME280;38002;53.296;6.600;2023-11-19T23:34:53;100591.59;;;10.61;100.00
51986;BME280;38002;53.296;6.600;2023-11-19T23:39:54;100585.31;;;10.60;100.00
51986;BME280;38002;53.296;6.600;2023-11-19T23:44:56;100586.16;;;10.61;100.00
51986;BME280;38002;53.296;6.600;2023-11-19T23:49:56;100576.47;;;10.58;100.00
51986;BME280;38002;53.296;6.600;2023-11-19T23:54:57;100589.75;;;10.61;100.00
